• Join FlightAware (Why Join?)
  • Login
  • US Flag 
12:08AM EDT


 

Airport Tracker/Info


-or-


 

Live Flight TrackerFlight Track Log ✈ VHT11 ✈ 08-May-2013 ✈ KLAS - CYVR

Flight Track Log - Related Links

Times and Time Zones

All times are in EDT time to prevent confusion due to time zone crossing. See the VHT11 flight status page for this flight to view local times or setup timezone preferences in your user account.

Time Position Orientation Groundspeed Altitude Reporting Facility
EDT Latitude Longitude Course Direction KTS MPH feet Rate Location/Type
05:26PM 36.0611 -115.1786 338° Northwest 187 215 3,100  Level Los Angeles Center
05:27PM 36.0358 -115.1919 203° Southwest 191 220 4,100 1,740 Climbing Los Angeles Center
05:28PM 35.9994 -115.2333 223° Southwest 208 239 5,600 1,380 Climbing Los Angeles Center
05:29PM 35.9644 -115.3111 241° Southwest 243 280 7,000 1,500 Climbing Los Angeles Center
05:30PM 35.9161 -115.3667 223° Southwest 256 295 8,700 1,560 Climbing Los Angeles Center
05:30PM 35.9072 -115.3778 225° Southwest 247 284 9,100 1,860 Climbing Los Angeles Center
05:31PM 35.8839 -115.4931 256° West 295 339 11,800 2,580 Climbing Los Angeles Center
05:32PM 36.7281 -115.4725 338° Northwest  Level Estimated
05:32PM 35.8892 -115.6503 272° West 361 415 15,000  Level Los Angeles Center
05:33PM 35.8914 -115.7806 271° West 379 436 17,900 2,880 Climbing Los Angeles Center
05:34PM 35.8936 -115.9142 271° West 388 447 21,000 2,880 Climbing Los Angeles Center
05:35PM 35.9481 -116.0347 299° West 391 450 23,900 2,580 Climbing Los Angeles Center
05:36PM 36.0303 -116.1258 318° Northwest 393 452 26,400 2,160 Climbing Los Angeles Center
05:38PM 36.1122 -116.2194 317° Northwest 404 465 28,400 1,920 Climbing Los Angeles Center
05:39PM 36.1986 -116.3189 317° Northwest 415 478 30,400 1,680 Climbing Los Angeles Center
05:40PM 36.2839 -116.4186 317° Northwest 423 487 31,900 720 Climbing Los Angeles Center
05:41PM 36.3931 -116.5456 317° Northwest 446 513 31,900  Level Los Angeles Center
05:42PM 36.4844 -116.6508 317° Northwest 450 518 31,900 480 Level Los Angeles Center
05:43PM 36.5800 -116.7603 317° Northwest 447 514 32,900 960 Climbing Los Angeles Center
05:44PM 36.6864 -116.8394 329° Northwest 447 514 34,000 480 Climbing Los Angeles Center
05:45PM 36.7961 -116.9233 329° Northwest 457 526 34,000 960 Level Los Angeles Center
05:46PM 36.9028 -117.0056 328° Northwest 452 520 36,000 1,920 Climbing Los Angeles Center
05:46PM 36.9650 -117.0550 328° Northwest 447 514 37,000 1,560 Climbing Oakland Center
05:47PM 37.0689 -117.1339 329° Northwest 439 505 38,400 1,140 Climbing Oakland Center
05:48PM 37.1725 -117.2142 328° Northwest 437 503 39,400 780 Climbing Oakland Center
05:49PM 37.2764 -117.2942 329° Northwest 435 501 40,100 540 Climbing Oakland Center
05:50PM 37.3828 -117.3661 332° Northwest 434 499 40,600 480 Climbing Oakland Center
05:51PM 37.4978 -117.4233 338° Northwest 442 509 41,100 480 Climbing Oakland Center
05:52PM 37.6178 -117.4681 344° North 446 513 41,600 480 Climbing Oakland Center
05:53PM 37.7378 -117.5144 343° North 448 516 42,100 480 Climbing Oakland Center
05:54PM 37.8567 -117.5617 343° North 445 512 42,600 420 Climbing Oakland Center
05:56PM 37.9764 -117.6089 343° North 445 512 43,000 180 Climbing Oakland Center
05:57PM 38.1208 -117.6669 342° North 448 516 43,000  Level Oakland Center
05:58PM 38.2414 -117.7144 343° North 449 517 43,000  Level Oakland Center
05:59PM 38.3619 -117.7625 343° North 451 519 43,000  Level Oakland Center
06:00PM 38.4825 -117.8106 343° North 450 518 43,000  Level Oakland Center
06:01PM 38.6025 -117.8592 342° North 450 518 43,000  Level Oakland Center
06:02PM 38.7233 -117.9094 342° North 452 520 43,000  Level Oakland Center
06:03PM 38.8431 -117.9572 343° North 452 520 43,000  Level Oakland Center
06:04PM 38.9617 -118.0064 342° North 450 518 43,000  Level Oakland Center
06:05PM 39.0803 -118.0558 342° North 449 517 43,000  Level Oakland Center
06:06PM 39.1983 -118.1031 343° North 448 516 43,000  Level Oakland Center
06:07PM 39.3397 -118.1622 342° North 448 516 43,000  Level Oakland Center
06:08PM 39.4564 -118.2103 342° North 445 512 43,000  Level Oakland Center
06:09PM 39.5731 -118.2592 342° North 446 513 43,000  Level Oakland Center
06:10PM 39.6894 -118.3078 342° North 444 511 43,000  Level Oakland Center
06:11PM 39.8064 -118.3567 342° North 445 512 43,000  Level Oakland Center
06:12PM 39.9239 -118.4053 342° North 446 513 43,000  Level Oakland Center
06:13PM 40.0644 -118.4661 342° North 446 513 43,000  Level Oakland Center
06:14PM 40.1817 -118.5156 342° North 446 513 43,000  Level Oakland Center
06:15PM 40.3014 -118.5686 341° North 455 524 43,000  Level Oakland Center
06:16PM 40.4194 -118.6192 342° North 449 517 43,000 -120 Level Oakland Center
06:16PM 40.4547 -118.6331 343° North 448 516 42,900 -120 Descending Salt Lake Center
06:17PM 40.5708 -118.6808 343° North 453 521 42,900  Level Salt Lake Center
06:18PM 40.7022 -118.7394 341° North 449 517 43,000  Climbing Salt Lake Center
06:19PM 40.8167 -118.7892 342° North 451 519 42,900  Descending Salt Lake Center
06:20PM 40.9317 -118.8394 342° North 451 519 43,000  Climbing Salt Lake Center
06:21PM 41.0478 -118.8900 342° North 454 522 43,000 -60 Level Oakland Center
06:22PM 41.1822 -118.9492 342° North 455 524 42,900  Descending Oakland Center
06:24PM 41.3169 -119.0072 342° North 455 524 43,000  Climbing Salt Lake Center
06:25PM 41.4314 -119.0575 342° North 453 521 43,000 -60 Level Salt Lake Center
06:26PM 41.5644 -119.1164 342° North 450 518 42,900  Descending Salt Lake Center
06:27PM 41.6786 -119.1658 342° North 450 518 43,000 60 Climbing Salt Lake Center
06:27PM 41.7333 -119.1947 338° Northwest 449 517 43,000 -120 Level Seattle Center
06:28PM 41.8483 -119.2442 342° North 451 519 42,900 -120 Descending Seattle Center
06:29PM 41.9253 -119.2792 341° North 450 518 42,900 60 Level Salt Lake Center
06:29PM 41.9811 -119.3042 342° North 450 518 43,000 60 Climbing Seattle Center
06:30PM 42.0881 -119.3517 342° North 446 513 43,000 -60 Level Seattle Center
06:31PM 42.2064 -119.4067 341° North 449 517 42,900  Descending Seattle Center
06:32PM 42.3261 -119.4600 342° North 451 519 43,000  Climbing Seattle Center
06:33PM 42.4444 -119.5133 342° North 451 519 43,000  Level Seattle Center
06:34PM 42.5639 -119.5672 342° North 452 520 43,000  Level Seattle Center
06:35PM 42.6825 -119.6211 342° North 452 520 43,000 -60 Level Seattle Center
06:36PM 42.8228 -119.6872 341° North 446 513 42,900  Descending Seattle Center
06:37PM 42.9406 -119.7419 341° North 447 514 43,000  Climbing Seattle Center
06:38PM 43.0583 -119.7944 342° North 446 513 42,900  Descending Seattle Center
06:39PM 43.1758 -119.8494 341° North 448 516 43,000  Climbing Seattle Center
06:40PM 43.2933 -119.9042 341° North 447 514 43,000 -60 Level Seattle Center
06:41PM 43.4069 -119.9578 341° North 452 520 42,900  Descending Seattle Center
06:42PM 43.5267 -120.0142 341° North 454 522 43,000  Climbing Seattle Center
06:43PM 43.6453 -120.0703 341° North 452 520 43,000  Level Seattle Center
06:45PM 43.7771 -120.1321 341° North  Level FlightAware Approximate
06:45PM 43.9053 -120.1947 341° North 450 518 43,000  Level Seattle Center
06:46PM 44.0225 -120.2506 341° North 447 514 43,000  Level Seattle Center
06:47PM 44.1394 -120.3078 341° North 447 514 43,000 -60 Level Seattle Center
06:48PM 44.2564 -120.3636 341° North 445 512 42,900 -60 Descending Seattle Center
06:49PM 44.3733 -120.4219 340° North 446 513 42,900  Level Seattle Center
06:50PM 44.4917 -120.4786 341° North 452 520 43,000  Climbing Seattle Center
06:51PM 44.6086 -120.5375 340° North 452 520 43,000 -60 Level Seattle Center
06:52PM 44.7317 -120.5972 341° North 454 522 42,900  Descending Seattle Center
06:53PM 44.8517 -120.6564 341° North 455 524 43,000  Climbing Seattle Center
06:54PM 44.9708 -120.7161 340° North 454 522 42,900 -60 Descending Seattle Center
06:56PM 45.0900 -120.7769 340° North 454 522 42,900  Level Seattle Center
06:57PM 45.2086 -120.8353 341° North 452 520 42,900  Level Seattle Center
06:58PM 45.3272 -120.8975 340° North 453 521 42,900  Level Seattle Center
06:59PM 45.4464 -120.9561 341° North 452 520 42,900  Level Seattle Center
07:00PM 45.5661 -121.0156 341° North 454 522 43,000  Climbing Seattle Center
07:01PM 45.7083 -121.0886 340° North 454 522 42,900  Descending Seattle Center
07:02PM 45.8269 -121.1511 340° North 454 522 43,000  Climbing Seattle Center
07:03PM 45.9458 -121.2122 340° North 453 521 42,900  Descending Seattle Center
07:04PM 46.0650 -121.2744 340° North 454 522 43,000  Climbing Seattle Center
07:05PM 46.1828 -121.3358 340° North 453 521 43,000  Level Seattle Center
07:06PM 46.3014 -121.3983 340° North 452 520 43,000 -60 Level Seattle Center
07:07PM 46.4189 -121.4600 340° North 451 519 42,900  Descending Seattle Center
07:08PM 46.5378 -121.5242 340° North 454 522 43,000  Climbing Seattle Center
07:09PM 46.6675 -121.5914 340° North 457 526 43,000  Level Seattle Center
07:10PM 46.7853 -121.6539 340° North 454 522 43,000  Level Seattle Center
07:11PM 46.9025 -121.7183 339° North 454 522 43,000 -60 Level Seattle Center
07:12PM 47.0200 -121.7822 340° North 456 525 42,900  Descending Seattle Center
07:13PM 47.1364 -121.8458 340° North 453 521 43,000  Climbing Seattle Center
07:14PM 47.2775 -121.9222 340° North 454 522 42,900  Descending Seattle Center
07:15PM 47.3956 -121.9867 340° North 458 527 43,000 -300 Climbing Seattle Center
07:16PM 47.5122 -122.0497 340° North 455 524 42,300 -1,320 Descending Seattle Center
07:17PM 47.6264 -122.1119 340° North 450 518 40,400 -1,920 Descending Seattle Center
07:18PM 47.7369 -122.1733 340° North 441 507 38,400 -2,040 Descending Seattle Center
07:19PM 47.8489 -122.2364 339° North 441 507 36,300 -3,000 Descending Seattle Center
07:20PM 47.9917 -122.3006 343° North 452 520 32,400 -3,720 Descending Seattle Center
07:21PM 48.1164 -122.3336 350° North 460 529 28,800 -3,720 Descending Seattle Center
07:22PM 48.2386 -122.3700 349° North 456 525 24,900 -4,020 Descending Seattle Center
07:23PM 48.3611 -122.4056 349° North 455 524 20,700 -3,840 Descending Seattle Center
07:24PM 48.4811 -122.4417 349° North 449 517 17,100 -3,600 Descending Seattle Center
07:25PM 48.5911 -122.4728 349° North 418 481 13,400 -2,520 Descending Seattle Center
07:26PM 48.6928 -122.5047 348° North 390 449 12,000 -660 Descending Seattle Center
07:27PM 48.7500 -122.6167 308° West 300 345 12,000 -360 Level Vancouver Center
07:28PM 48.8000 -122.7167 307° West 260 299 11,300 -960 Descending Vancouver Center
07:29PM 48.8333 -122.7833 307° West 250 288 10,100 -1,200 Descending Vancouver Center
07:30PM 48.8833 -122.8833 307° West 250 288 9,000 -900 Descending Vancouver Center
07:31PM 48.9167 -122.9667 301° West 240 276 8,300 -1,140 Descending Vancouver Center
07:32PM 48.9833 -123.0167 334° Northwest 240 276 6,800 -1,260 Descending Vancouver Center
07:33PM 49.0500 -122.9833 18° North 240 276 5,800 -900 Descending Vancouver Center
07:34PM 49.0500 -122.8833 90° East 220 253 5,000 -900 Descending Vancouver Center
07:35PM 49.1000 -122.8500 24° Northeast 190 219 4,000 -1,080 Descending Vancouver Center
07:36PM 49.1167 -122.9333 287° West 190 219 2,900 -1,080 Descending Vancouver Center
07:37PM 49.1500 -123.0000 307° West 190 219 1,900 -1,020 Descending Vancouver Center